createdAt,value
2019-01-03T00:00:00.454Z,2.10
2019-01-03T00:01:00.453Z,2.20
2019-01-03T00:02:00.431Z,2.20
2019-01-03T00:03:00.447Z,1.90
2019-01-03T00:04:00.417Z,2.20
2019-01-03T00:05:00.398Z,2.20
2019-01-03T00:06:00.390Z,2.40
2019-01-03T00:07:00.374Z,2.00
2019-01-03T00:09:27.954Z,1.90
2019-01-03T00:10:27.948Z,2.40
2019-01-03T00:11:48.065Z,2.10
2019-01-03T00:13:09.986Z,2.00
2019-01-03T00:14:09.957Z,2.10
2019-01-03T00:15:09.945Z,2.40
2019-01-03T00:16:09.933Z,2.00
2019-01-03T00:17:09.922Z,2.10
2019-01-03T00:18:09.911Z,2.40
2019-01-03T00:19:09.904Z,2.00
2019-01-03T00:20:09.889Z,2.20
2019-01-03T00:21:09.883Z,2.20
2019-01-03T00:22:09.868Z,2.10
2019-01-03T00:23:09.860Z,2.30
2019-01-03T00:24:09.858Z,2.20
2019-01-03T00:25:09.835Z,2.40
2019-01-03T00:26:09.823Z,2.00
2019-01-03T00:27:09.814Z,2.20
2019-01-03T00:28:09.848Z,1.90
2019-01-03T00:29:09.791Z,2.10
2019-01-03T00:30:09.779Z,2.10
2019-01-03T00:31:09.768Z,2.20
2019-01-03T00:32:09.761Z,2.30
2019-01-03T00:33:09.748Z,2.20
2019-01-03T00:34:09.738Z,1.90
2019-01-03T00:35:09.728Z,2.00
2019-01-03T00:36:09.714Z,1.60
2019-01-03T00:37:09.705Z,2.00
2019-01-03T00:38:09.692Z,2.40
2019-01-03T00:39:09.683Z,1.80
2019-01-03T00:40:09.670Z,2.20
2019-01-03T00:41:09.658Z,2.10
2019-01-03T00:42:09.648Z,2.50
2019-01-03T00:43:09.637Z,1.90
2019-01-03T00:44:09.636Z,3.10
2019-01-03T00:45:09.615Z,3.70
2019-01-03T00:46:09.605Z,9.80
2019-01-03T00:47:09.603Z,7.80
2019-01-03T00:48:09.583Z,14.60
2019-01-03T00:49:09.576Z,8.10
2019-01-03T00:50:09.561Z,13.70
2019-01-03T00:51:09.552Z,19.90
2019-01-03T00:52:09.538Z,10.20
2019-01-03T00:53:09.528Z,8.60
2019-01-03T00:54:09.518Z,6.00
2019-01-03T00:55:09.505Z,4.60
2019-01-03T00:56:09.500Z,2.90
2019-01-03T00:57:09.483Z,2.50
2019-01-03T00:58:09.508Z,2.30
2019-01-03T00:59:09.462Z,2.40
2019-01-03T01:00:09.449Z,2.50
2019-01-03T01:01:09.440Z,2.40
2019-01-03T01:02:09.429Z,2.00
2019-01-03T01:03:09.417Z,1.80
2019-01-03T01:04:09.417Z,1.70
2019-01-03T01:05:09.399Z,1.70
2019-01-03T01:06:09.386Z,2.00
2019-01-03T01:07:09.373Z,1.80
2019-01-03T01:08:09.367Z,1.90
2019-01-03T01:09:09.356Z,1.80
2019-01-03T01:10:09.341Z,2.10
2019-01-03T01:11:09.329Z,2.10
2019-01-03T01:12:09.319Z,2.10
2019-01-03T01:13:09.314Z,2.10
2019-01-03T01:14:09.297Z,2.20
2019-01-03T01:15:09.290Z,2.30
2019-01-03T01:16:09.283Z,2.40
2019-01-03T01:17:09.264Z,2.50
2019-01-03T01:18:09.255Z,1.70
2019-01-03T01:19:09.246Z,2.10
2019-01-03T01:20:09.230Z,2.40
2019-01-03T01:21:09.220Z,1.90
2019-01-03T01:22:09.219Z,2.30
2019-01-03T01:23:09.197Z,2.10
2019-01-03T01:24:09.220Z,2.30
2019-01-03T01:25:09.179Z,2.00
2019-01-03T01:26:09.166Z,2.20
2019-01-03T01:27:09.155Z,2.20
2019-01-03T01:28:09.146Z,1.80
2019-01-03T01:29:09.135Z,1.80
2019-01-03T01:30:09.123Z,2.00
2019-01-03T01:31:09.111Z,1.80
2019-01-03T01:32:09.099Z,1.90
2019-01-03T01:33:09.088Z,2.00
2019-01-03T01:34:09.077Z,1.70
2019-01-03T01:35:09.066Z,1.80
2019-01-03T01:36:09.058Z,2.00
2019-01-03T01:37:09.045Z,1.80
2019-01-03T01:38:09.033Z,2.10
2019-01-03T01:39:09.026Z,1.90
2019-01-03T01:40:09.012Z,1.80
2019-01-03T01:41:09.001Z,2.00
2019-01-03T01:42:08.992Z,2.40
2019-01-03T01:43:08.984Z,1.80
2019-01-03T01:44:08.967Z,2.40
2019-01-03T01:45:08.956Z,2.20
2019-01-03T01:46:08.952Z,1.70
2019-01-03T01:47:08.934Z,2.00
2019-01-03T01:48:08.926Z,2.10
2019-01-03T01:49:08.914Z,1.80
2019-01-03T01:50:08.902Z,2.40
2019-01-03T01:51:08.945Z,2.20
2019-01-03T01:52:08.880Z,1.80
2019-01-03T01:53:08.869Z,1.60
2019-01-03T01:54:08.861Z,2.40
2019-01-03T01:55:08.851Z,2.10
2019-01-03T01:56:08.844Z,1.60
2019-01-03T01:57:08.829Z,1.80
2019-01-03T01:58:08.815Z,1.70
2019-01-03T01:59:08.807Z,2.00
2019-01-03T02:00:08.795Z,2.20
2019-01-03T02:01:08.785Z,1.80
2019-01-03T02:02:08.771Z,2.10
2019-01-03T02:03:08.764Z,1.90
2019-01-03T02:04:08.749Z,1.80
2019-01-03T02:05:08.750Z,2.00
2019-01-03T02:06:08.734Z,2.00
2019-01-03T02:07:08.715Z,1.70
2019-01-03T02:08:08.706Z,2.00
2019-01-03T02:09:08.695Z,1.80
2019-01-03T02:10:08.714Z,2.00
2019-01-03T02:11:08.717Z,1.80
2019-01-03T02:12:08.667Z,2.40
2019-01-03T02:13:08.725Z,1.70
2019-01-03T02:14:08.655Z,2.00
2019-01-03T02:15:08.665Z,2.00
2019-01-03T02:16:08.638Z,2.10
2019-01-03T02:17:08.619Z,1.90
2019-01-03T02:18:08.602Z,2.10
2019-01-03T02:19:08.585Z,1.80
2019-01-03T02:20:29.042Z,1.90
2019-01-03T02:21:50.667Z,1.90
2019-01-03T02:22:50.641Z,1.70
2019-01-03T02:23:50.627Z,1.90
2019-01-03T02:24:50.622Z,2.10
2019-01-03T02:25:50.605Z,2.30
2019-01-03T02:26:50.595Z,1.70
2019-01-03T02:27:50.610Z,1.90
2019-01-03T02:29:11.185Z,1.80
2019-01-03T02:30:32.704Z,2.10
2019-01-03T02:31:32.702Z,1.70
2019-01-03T02:32:32.658Z,2.00
2019-01-03T02:33:51.289Z,2.20
2019-01-03T02:34:32.598Z,1.90
2019-01-03T02:35:32.579Z,2.00
2019-01-03T02:36:32.570Z,1.70
2019-01-03T02:37:32.554Z,1.70
2019-01-03T02:38:32.551Z,2.20
2019-01-03T02:39:32.533Z,1.80
2019-01-03T02:40:32.522Z,2.00
2019-01-03T02:41:32.518Z,1.60
2019-01-03T02:42:32.500Z,2.50
2019-01-03T02:43:32.491Z,2.20
2019-01-03T02:44:32.481Z,1.90
2019-01-03T02:45:32.468Z,2.10
2019-01-03T02:46:32.457Z,1.90
2019-01-03T02:47:32.446Z,1.80
2019-01-03T02:48:32.436Z,1.90
2019-01-03T02:49:32.440Z,1.80
2019-01-03T02:50:32.415Z,2.10
2019-01-03T02:51:32.402Z,2.20
2019-01-03T02:52:32.390Z,2.00
2019-01-03T02:53:32.381Z,1.80
2019-01-03T02:54:32.370Z,1.90
2019-01-03T02:55:32.358Z,2.00
2019-01-03T02:56:32.349Z,2.00
2019-01-03T02:57:32.335Z,2.10
2019-01-03T02:58:32.325Z,1.70
2019-01-03T02:59:32.316Z,2.20
2019-01-03T03:00:32.303Z,2.10
2019-01-03T03:01:32.298Z,1.60
2019-01-03T03:02:32.297Z,1.70
2019-01-03T03:03:32.272Z,1.60
2019-01-03T03:04:32.299Z,1.90
2019-01-03T03:05:32.250Z,1.80
2019-01-03T03:06:32.237Z,1.90
2019-01-03T03:07:32.227Z,1.80
2019-01-03T03:08:32.218Z,2.10
2019-01-03T03:09:32.204Z,2.20
2019-01-03T03:10:32.194Z,1.90
2019-01-03T03:11:32.185Z,1.70
2019-01-03T03:12:32.171Z,1.90
2019-01-03T03:13:32.196Z,1.90
2019-01-03T03:14:32.154Z,2.30
2019-01-03T03:15:32.141Z,1.70
2019-01-03T03:16:32.130Z,1.90
2019-01-03T03:17:32.116Z,2.10
2019-01-03T03:18:32.105Z,1.60
2019-01-03T03:19:32.098Z,2.00
2019-01-03T03:20:32.085Z,1.60
2019-01-03T03:21:32.075Z,1.90
2019-01-03T03:22:32.064Z,2.10
2019-01-03T03:23:32.064Z,1.80
2019-01-03T03:24:32.042Z,2.00
2019-01-03T03:25:32.030Z,1.80
2019-01-03T03:26:32.019Z,1.50
2019-01-03T03:27:32.009Z,2.00
2019-01-03T03:28:32.000Z,2.00
2019-01-03T03:29:31.990Z,2.20
2019-01-03T03:30:31.975Z,1.80
2019-01-03T03:31:31.965Z,1.90
2019-01-03T03:32:31.953Z,1.60
2019-01-03T03:33:31.941Z,1.60
2019-01-03T03:34:31.933Z,2.20
2019-01-03T03:35:31.937Z,1.70
2019-01-03T03:36:31.913Z,1.60
2019-01-03T03:37:31.900Z,1.70
2019-01-03T03:38:31.886Z,1.70
2019-01-03T03:39:31.891Z,2.20
2019-01-03T03:40:31.865Z,1.40
2019-01-03T03:41:31.854Z,1.80
2019-01-03T03:42:31.842Z,1.30
2019-01-03T03:43:31.843Z,1.90
2019-01-03T03:44:31.825Z,1.50
2019-01-03T03:45:31.811Z,1.70
2019-01-03T03:46:31.803Z,1.70
2019-01-03T03:47:31.790Z,1.90
2019-01-03T03:48:31.782Z,1.40
2019-01-03T03:49:31.793Z,2.00
2019-01-03T03:50:31.755Z,1.80
2019-01-03T03:51:31.744Z,1.80
2019-01-03T03:52:31.735Z,1.50
2019-01-03T03:53:31.732Z,1.50
2019-01-03T03:54:31.711Z,1.70
2019-01-03T03:55:31.712Z,1.70
2019-01-03T03:56:31.690Z,2.20
2019-01-03T03:57:31.681Z,1.60
2019-01-03T03:58:31.673Z,1.60
2019-01-03T03:59:31.659Z,1.50
2019-01-03T04:00:31.647Z,1.70
2019-01-03T04:01:31.636Z,1.80
2019-01-03T04:02:31.664Z,1.90
2019-01-03T04:03:31.617Z,1.80
2019-01-03T04:04:31.604Z,1.60
2019-01-03T04:05:31.589Z,2.00
2019-01-03T04:06:31.581Z,1.80
2019-01-03T04:07:31.568Z,1.60
2019-01-03T04:08:31.560Z,2.30
2019-01-03T04:09:31.547Z,1.80
2019-01-03T04:10:31.537Z,1.80
2019-01-03T04:11:31.526Z,2.20
2019-01-03T04:12:31.515Z,1.90
2019-01-03T04:13:31.509Z,2.10
2019-01-03T04:14:31.493Z,1.80
2019-01-03T04:15:31.482Z,2.60
2019-01-03T04:16:31.470Z,1.90
2019-01-03T04:17:31.461Z,2.10
2019-01-03T04:18:31.448Z,2.00
2019-01-03T04:19:31.439Z,2.10
2019-01-03T04:20:31.430Z,2.10
2019-01-03T04:21:31.421Z,2.00
2019-01-03T04:22:31.406Z,1.90
2019-01-03T04:23:31.393Z,1.80
2019-01-03T04:24:31.383Z,2.10
2019-01-03T04:25:31.413Z,1.70
2019-01-03T04:26:31.361Z,1.80
2019-01-03T04:27:31.351Z,2.20
2019-01-03T04:28:31.337Z,1.90
2019-01-03T04:29:31.326Z,1.70
2019-01-03T04:30:31.321Z,2.10
2019-01-03T04:31:31.306Z,2.40
2019-01-03T04:32:31.300Z,1.90
2019-01-03T04:33:31.294Z,1.90
2019-01-03T04:34:31.276Z,1.70
2019-01-03T04:35:31.262Z,2.30
2019-01-03T04:36:31.261Z,1.80
2019-01-03T04:37:31.239Z,1.90
2019-01-03T04:38:50.874Z,2.30
2019-01-03T04:40:13.265Z,2.20
2019-01-03T04:41:13.251Z,1.70
2019-01-03T04:42:13.242Z,2.30
2019-01-03T04:43:13.231Z,2.10
2019-01-03T04:44:13.219Z,2.20
2019-01-03T04:45:13.240Z,2.30
2019-01-03T04:46:13.196Z,2.20
2019-01-03T04:47:13.186Z,2.30
2019-01-03T04:48:13.175Z,2.10
2019-01-03T04:49:13.170Z,1.90
2019-01-03T04:50:13.156Z,2.00
2019-01-03T04:51:13.141Z,2.00
2019-01-03T04:52:13.135Z,2.00
2019-01-03T04:53:13.119Z,2.20
2019-01-03T04:54:13.110Z,1.80
2019-01-03T04:55:13.112Z,1.60
2019-01-03T04:56:13.087Z,1.90
2019-01-03T04:57:13.077Z,1.80
2019-01-03T04:58:13.066Z,1.90
2019-01-03T04:59:13.057Z,1.90
2019-01-03T05:00:13.044Z,1.70
2019-01-03T05:01:13.032Z,2.00
2019-01-03T05:02:13.030Z,1.80
2019-01-03T05:03:13.015Z,2.10
2019-01-03T05:04:13.000Z,1.90
2019-01-03T05:05:12.989Z,1.90
2019-01-03T05:06:12.980Z,2.10
2019-01-03T05:07:12.967Z,2.00
2019-01-03T05:08:12.955Z,1.80
2019-01-03T05:09:12.945Z,1.80
2019-01-03T05:10:12.939Z,1.50
2019-01-03T05:11:12.930Z,2.00
2019-01-03T05:12:12.917Z,2.20
2019-01-03T05:13:12.901Z,1.90
2019-01-03T05:14:12.895Z,1.90
2019-01-03T05:15:12.887Z,1.90
2019-01-03T05:16:12.872Z,2.20
2019-01-03T05:17:12.861Z,1.90
2019-01-03T05:18:12.848Z,2.20
2019-01-03T05:19:12.837Z,2.30
2019-01-03T05:20:12.823Z,2.10
2019-01-03T05:21:12.816Z,1.80
2019-01-03T05:22:12.802Z,2.80
2019-01-03T05:23:12.804Z,3.20
2019-01-03T05:24:12.781Z,3.50
2019-01-03T05:25:12.770Z,4.80
2019-01-03T05:26:12.759Z,4.30
2019-01-03T05:27:12.767Z,3.90
2019-01-03T05:28:12.753Z,2.90
2019-01-03T05:29:12.730Z,2.30
2019-01-03T05:30:18.263Z,2.50
2019-01-03T05:31:13.709Z,2.40
2019-01-03T05:32:12.693Z,2.20
2019-01-03T05:33:12.685Z,1.50
2019-01-03T05:34:12.675Z,2.40
2019-01-03T05:35:12.660Z,2.50
2019-01-03T05:36:12.653Z,1.90
2019-01-03T05:37:12.638Z,1.90
2019-01-03T05:38:12.627Z,2.00
2019-01-03T05:39:12.615Z,2.40
2019-01-03T05:40:12.610Z,2.00
2019-01-03T05:41:12.597Z,2.10
2019-01-03T05:42:12.583Z,2.40
2019-01-03T05:43:12.571Z,2.70
2019-01-03T05:44:12.566Z,3.40
2019-01-03T05:45:12.576Z,2.90
2019-01-03T05:46:12.542Z,2.50
2019-01-03T05:47:12.533Z,2.90
2019-01-03T05:48:12.517Z,2.90
2019-01-03T05:49:12.512Z,2.40
2019-01-03T05:50:12.495Z,2.30
2019-01-03T05:51:12.484Z,2.10
2019-01-03T05:52:12.472Z,1.90
2019-01-03T05:53:12.462Z,2.10
2019-01-03T05:54:12.451Z,1.80
2019-01-03T05:55:12.442Z,2.00
2019-01-03T05:56:12.434Z,2.30
2019-01-03T05:57:12.417Z,1.90
2019-01-03T05:58:12.412Z,2.30
2019-01-03T05:59:12.396Z,2.20
2019-01-03T06:00:13.393Z,1.90
2019-01-03T06:01:12.374Z,1.90
2019-01-03T06:02:12.368Z,3.50
2019-01-03T06:03:12.351Z,4.40
2019-01-03T06:04:12.343Z,7.50
2019-01-03T06:05:12.330Z,9.60
2019-01-03T06:06:12.322Z,12.20
2019-01-03T06:07:12.309Z,6.30
2019-01-03T06:08:12.299Z,4.90
2019-01-03T06:09:12.285Z,3.20
2019-01-03T06:10:12.279Z,2.10
2019-01-03T06:11:12.267Z,2.10
2019-01-03T06:12:12.256Z,2.20
2019-01-03T06:13:12.244Z,2.20
2019-01-03T06:14:12.249Z,2.00
2019-01-03T06:15:12.223Z,1.90
2019-01-03T06:16:12.210Z,2.20
2019-01-03T06:17:12.207Z,2.20
2019-01-03T06:18:12.191Z,2.20
2019-01-03T06:19:12.176Z,2.40
2019-01-03T06:20:12.183Z,1.80
2019-01-03T06:21:12.154Z,2.10
2019-01-03T06:22:12.148Z,1.80
2019-01-03T06:23:12.137Z,1.70
2019-01-03T06:24:12.124Z,1.90
2019-01-03T06:25:12.113Z,1.80
2019-01-03T06:26:12.101Z,1.80
2019-01-03T06:27:12.091Z,1.90
2019-01-03T06:28:12.082Z,2.00
2019-01-03T06:29:12.071Z,2.20
2019-01-03T06:30:12.100Z,1.50
2019-01-03T06:31:12.044Z,2.00
2019-01-03T06:32:12.032Z,1.50
2019-01-03T06:33:12.026Z,2.10
2019-01-03T06:34:12.013Z,1.80
2019-01-03T06:35:12.006Z,1.90
2019-01-03T06:36:11.989Z,2.00
2019-01-03T06:37:11.982Z,1.90
2019-01-03T06:38:11.970Z,2.00
2019-01-03T06:39:11.957Z,2.20
2019-01-03T06:40:11.960Z,1.60
2019-01-03T06:41:11.937Z,2.00
2019-01-03T06:42:11.925Z,8.30
2019-01-03T06:43:11.911Z,10.90
2019-01-03T06:44:11.907Z,13.30
2019-01-03T06:45:11.894Z,5.80
2019-01-03T06:46:11.883Z,4.00
2019-01-03T06:47:11.879Z,2.50
2019-01-03T06:48:11.857Z,2.30
2019-01-03T06:49:11.951Z,2.10
2019-01-03T06:50:11.835Z,2.10
2019-01-03T06:51:11.824Z,1.90
2019-01-03T06:52:11.849Z,1.60
2019-01-03T06:53:11.805Z,1.70
2019-01-03T06:54:31.418Z,1.70
2019-01-03T06:55:53.341Z,2.20
2019-01-03T06:56:53.322Z,1.70
2019-01-03T06:58:24.291Z,1.40
2019-01-03T06:59:24.277Z,1.90
2019-01-03T07:00:24.270Z,1.80
2019-01-03T07:01:24.255Z,1.60
2019-01-03T07:02:24.244Z,1.70
2019-01-03T07:03:24.230Z,2.00
2019-01-03T07:04:24.217Z,2.00
2019-01-03T07:05:24.209Z,1.60
2019-01-03T07:06:24.199Z,1.40
2019-01-03T07:07:24.184Z,1.70
2019-01-03T07:08:24.173Z,1.50
2019-01-03T07:09:24.167Z,1.90
2019-01-03T07:10:24.152Z,1.50
2019-01-03T07:11:24.179Z,1.70
2019-01-03T07:12:24.132Z,1.70
2019-01-03T07:13:24.118Z,1.90
2019-01-03T07:14:24.107Z,1.90
2019-01-03T07:15:24.099Z,1.70
2019-01-03T07:16:24.086Z,1.70
2019-01-03T07:17:24.089Z,1.50
2019-01-03T07:18:24.068Z,1.90
2019-01-03T07:19:24.053Z,1.70
2019-01-03T07:20:24.046Z,1.60
2019-01-03T07:21:27.246Z,1.50
2019-01-03T07:22:24.020Z,1.60
2019-01-03T07:23:24.008Z,1.80
2019-01-03T07:24:24.010Z,1.70
2019-01-03T07:25:24.055Z,1.70
2019-01-03T07:26:23.984Z,1.70
2019-01-03T07:27:23.970Z,1.40
2019-01-03T07:28:23.953Z,1.90
2019-01-03T07:29:23.943Z,2.10
2019-01-03T07:30:23.944Z,2.00
2019-01-03T07:31:23.923Z,1.80
2019-01-03T07:32:23.910Z,1.90
2019-01-03T07:33:23.915Z,1.60
2019-01-03T07:34:23.946Z,1.70
2019-01-03T07:35:23.879Z,1.90
2019-01-03T07:36:23.866Z,1.70
2019-01-03T07:37:23.856Z,1.80
2019-01-03T07:38:23.845Z,1.70
2019-01-03T07:39:23.833Z,1.90
2019-01-03T07:40:23.825Z,1.60
2019-01-03T07:41:23.814Z,2.00
2019-01-03T07:42:23.802Z,1.90
2019-01-03T07:43:23.822Z,1.80
2019-01-03T07:44:23.779Z,2.00
2019-01-03T07:45:23.775Z,1.70
2019-01-03T07:46:23.758Z,2.00
2019-01-03T07:47:23.744Z,1.90
2019-01-03T07:48:23.732Z,1.80
2019-01-03T07:49:23.722Z,2.20
2019-01-03T07:50:23.715Z,2.20
2019-01-03T07:51:23.701Z,2.00
2019-01-03T07:52:23.691Z,1.90
2019-01-03T07:53:23.678Z,2.10
2019-01-03T07:54:23.670Z,2.20
2019-01-03T07:55:23.659Z,2.50
2019-01-03T07:56:23.645Z,2.10
2019-01-03T07:57:23.639Z,2.20
2019-01-03T07:58:23.629Z,2.20
2019-01-03T07:59:23.611Z,2.10
2019-01-03T08:00:23.605Z,2.00
2019-01-03T08:01:23.601Z,1.60
2019-01-03T08:02:23.581Z,2.20
2019-01-03T08:03:23.573Z,2.10
2019-01-03T08:04:23.561Z,2.00
2019-01-03T08:05:23.546Z,1.80
2019-01-03T08:06:23.535Z,2.10
2019-01-03T08:07:23.527Z,1.90
2019-01-03T08:08:23.528Z,1.60
2019-01-03T08:09:23.507Z,2.10
2019-01-03T08:10:23.495Z,1.70
2019-01-03T08:11:23.482Z,1.90
2019-01-03T08:12:23.469Z,1.70
2019-01-03T08:13:23.460Z,2.00
2019-01-03T08:14:23.450Z,2.20
2019-01-03T08:15:23.436Z,2.60
2019-01-03T08:16:23.453Z,2.60
2019-01-03T08:17:23.416Z,2.30
2019-01-03T08:18:23.409Z,2.80
2019-01-03T08:19:23.397Z,2.90
2019-01-03T08:20:23.386Z,3.20
2019-01-03T08:21:23.370Z,2.70
2019-01-03T08:22:23.375Z,2.40
2019-01-03T08:23:23.350Z,2.30
2019-01-03T08:24:23.341Z,2.40
2019-01-03T08:25:23.328Z,2.80
2019-01-03T08:26:23.319Z,2.80
2019-01-03T08:27:23.305Z,2.50
2019-01-03T08:28:23.296Z,2.90
2019-01-03T08:29:23.282Z,2.60
2019-01-03T08:30:23.273Z,2.90
2019-01-03T08:31:23.261Z,2.70
2019-01-03T08:32:23.251Z,2.70
2019-01-03T08:33:23.243Z,2.60
2019-01-03T08:34:23.267Z,2.80
2019-01-03T08:35:23.220Z,3.00
2019-01-03T08:36:23.212Z,2.80
2019-01-03T08:37:23.195Z,3.20
2019-01-03T08:38:23.184Z,3.10
2019-01-03T08:39:23.173Z,3.20
2019-01-03T08:40:23.165Z,3.20
2019-01-03T08:41:23.155Z,2.60
2019-01-03T08:42:23.139Z,2.50
2019-01-03T08:43:27.030Z,2.30
2019-01-03T08:44:23.132Z,2.50
2019-01-03T08:45:23.108Z,2.10
2019-01-03T08:46:23.096Z,2.50
2019-01-03T08:47:23.088Z,2.20
2019-01-03T08:48:23.083Z,2.10
2019-01-03T08:49:23.072Z,2.10
2019-01-03T08:50:23.054Z,2.10
2019-01-03T08:51:23.044Z,2.50
2019-01-03T08:52:23.035Z,2.00
2019-01-03T08:53:23.019Z,2.00
2019-01-03T08:54:23.009Z,1.90
2019-01-03T08:55:23.023Z,1.80
2019-01-03T08:56:23.058Z,1.90
2019-01-03T08:57:22.977Z,2.10
2019-01-03T08:58:22.964Z,2.10
2019-01-03T08:59:22.955Z,1.80
2019-01-03T09:00:22.943Z,2.00
2019-01-03T09:01:22.948Z,1.70
2019-01-03T09:02:22.921Z,2.00
2019-01-03T09:03:22.937Z,2.20
2019-01-03T09:04:22.932Z,2.10
2019-01-03T09:05:22.955Z,1.80
2019-01-03T09:06:22.978Z,2.30
2019-01-03T09:07:22.908Z,1.90
2019-01-03T09:08:22.859Z,2.00
2019-01-03T09:09:22.843Z,1.90
2019-01-03T09:10:22.831Z,2.10
2019-01-03T09:11:22.825Z,2.00
2019-01-03T09:12:22.810Z,2.00
2019-01-03T09:13:22.799Z,2.20
2019-01-03T09:14:22.845Z,2.10
2019-01-03T09:15:22.783Z,2.20
2019-01-03T09:16:22.765Z,1.90
2019-01-03T09:17:22.754Z,2.00
2019-01-03T09:18:22.742Z,2.10
2019-01-03T09:19:22.774Z,1.90
2019-01-03T09:20:22.724Z,1.80
2019-01-03T09:21:22.713Z,2.10
2019-01-03T09:22:22.701Z,2.10
2019-01-03T09:23:22.710Z,2.20
2019-01-03T09:24:22.717Z,2.10
2019-01-03T09:25:22.701Z,2.30
2019-01-03T09:26:22.694Z,2.30
2019-01-03T09:27:22.685Z,2.50
2019-01-03T09:28:22.641Z,2.60
2019-01-03T09:29:22.650Z,1.80
2019-01-03T09:30:22.609Z,1.90
2019-01-03T09:31:22.615Z,2.00
2019-01-03T09:32:22.590Z,2.50
2019-01-03T09:33:22.575Z,1.90
2019-01-03T09:34:22.568Z,2.10
2019-01-03T09:35:22.556Z,1.90
2019-01-03T09:36:22.542Z,2.20
2019-01-03T09:37:26.989Z,2.20
2019-01-03T09:38:22.545Z,2.40
2019-01-03T09:39:22.510Z,2.20
2019-01-03T09:40:22.505Z,1.90
2019-01-03T09:41:22.488Z,1.90
2019-01-03T09:42:22.477Z,1.90
2019-01-03T09:43:22.469Z,2.10
2019-01-03T09:44:22.491Z,1.70
2019-01-03T09:45:22.454Z,1.60
2019-01-03T09:46:22.464Z,1.90
2019-01-03T09:47:22.462Z,1.50
2019-01-03T09:48:22.412Z,1.80
2019-01-03T09:49:22.399Z,1.80
2019-01-03T09:50:22.390Z,1.90
2019-01-03T09:51:22.382Z,2.00
2019-01-03T09:52:22.370Z,1.90
2019-01-03T09:53:22.356Z,2.00
2019-01-03T09:54:22.347Z,1.50
2019-01-03T09:55:22.333Z,1.90
2019-01-03T09:56:22.342Z,1.80
2019-01-03T09:57:22.337Z,2.00
2019-01-03T09:58:22.300Z,2.00
2019-01-03T09:59:40.439Z,1.80
2019-01-03T10:01:04.387Z,1.60
2019-01-03T10:02:22.665Z,2.30
2019-01-03T10:03:46.417Z,1.50
2019-01-03T10:05:06.021Z,2.10
2019-01-03T10:06:28.433Z,2.50
2019-01-03T10:07:28.429Z,2.00
2019-01-03T10:08:28.409Z,2.10
2019-01-03T10:09:28.415Z,2.10
2019-01-03T10:10:48.030Z,2.20
2019-01-03T10:12:10.420Z,2.20
2019-01-03T10:13:10.408Z,1.90
2019-01-03T10:14:10.398Z,2.30
2019-01-03T10:15:10.388Z,2.30
2019-01-03T10:16:10.376Z,1.80
2019-01-03T10:17:10.367Z,2.00
2019-01-03T10:18:10.358Z,2.10
2019-01-03T10:19:10.344Z,1.90
2019-01-03T10:20:10.335Z,1.90
2019-01-03T10:21:10.320Z,1.80
2019-01-03T10:22:10.311Z,1.80
2019-01-03T10:23:10.299Z,1.90
2019-01-03T10:24:10.290Z,2.00
2019-01-03T10:25:10.278Z,1.90
2019-01-03T10:26:10.269Z,1.60
2019-01-03T10:27:10.259Z,1.90
2019-01-03T10:28:10.245Z,2.00
2019-01-03T10:29:10.236Z,1.90
2019-01-03T10:30:10.226Z,1.90
2019-01-03T10:31:11.378Z,2.10
2019-01-03T10:32:10.202Z,2.30
2019-01-03T10:33:10.192Z,1.90
2019-01-03T10:34:10.180Z,2.00
2019-01-03T10:35:10.171Z,2.10
2019-01-03T10:36:10.159Z,1.90
2019-01-03T10:37:10.148Z,2.30
2019-01-03T10:38:10.135Z,2.50
2019-01-03T10:39:10.126Z,2.20
2019-01-03T10:40:10.117Z,2.20
2019-01-03T10:41:10.104Z,2.20
2019-01-03T10:42:10.093Z,2.60
2019-01-03T10:43:10.086Z,2.50
2019-01-03T10:44:10.073Z,2.20
2019-01-03T10:45:10.061Z,3.00
2019-01-03T10:46:10.091Z,2.40
2019-01-03T10:47:10.038Z,2.20
2019-01-03T10:48:10.027Z,2.80
2019-01-03T10:49:10.016Z,2.40
2019-01-03T10:50:10.006Z,2.70
2019-01-03T10:51:09.995Z,1.90
2019-01-03T10:52:10.043Z,2.30
2019-01-03T10:53:10.489Z,2.20
2019-01-03T10:54:09.961Z,2.20
2019-01-03T10:55:09.952Z,2.20
2019-01-03T10:56:09.939Z,2.70
2019-01-03T10:57:09.952Z,2.40
2019-01-03T10:58:09.919Z,2.30
2019-01-03T10:59:09.908Z,2.30
2019-01-03T11:00:09.895Z,2.30
2019-01-03T11:01:09.885Z,2.20
2019-01-03T11:02:09.876Z,2.50
2019-01-03T11:03:09.863Z,2.20
2019-01-03T11:04:09.855Z,2.70
2019-01-03T11:05:09.842Z,2.10
2019-01-03T11:06:09.830Z,2.10
2019-01-03T11:07:09.820Z,2.50
2019-01-03T11:08:09.811Z,2.30
2019-01-03T11:09:09.796Z,2.20
2019-01-03T11:10:09.787Z,2.30
2019-01-03T11:11:09.774Z,2.10
2019-01-03T11:12:09.762Z,2.30
2019-01-03T11:13:09.751Z,1.90
2019-01-03T11:14:09.774Z,2.40
2019-01-03T11:15:09.730Z,2.20
2019-01-03T11:16:09.720Z,2.10
2019-01-03T11:17:09.707Z,2.20
2019-01-03T11:18:09.705Z,2.10
2019-01-03T11:19:09.686Z,2.00
2019-01-03T11:20:09.675Z,2.30
2019-01-03T11:21:09.665Z,2.80
2019-01-03T11:22:09.663Z,2.20
2019-01-03T11:23:09.642Z,2.10
2019-01-03T11:24:09.684Z,2.60
2019-01-03T11:25:09.619Z,2.50
2019-01-03T11:26:09.614Z,2.20
2019-01-03T11:27:09.596Z,2.20
2019-01-03T11:28:09.589Z,2.50
2019-01-03T11:29:09.577Z,2.40
2019-01-03T11:30:09.567Z,2.50
2019-01-03T11:31:09.553Z,2.50
2019-01-03T11:32:09.541Z,2.50
2019-01-03T11:33:09.530Z,2.30
2019-01-03T11:34:09.549Z,2.50
2019-01-03T11:35:09.509Z,2.60
2019-01-03T11:36:09.500Z,2.70
2019-01-03T11:37:09.486Z,2.40
2019-01-03T11:38:09.477Z,14.50
2019-01-03T11:39:09.469Z,15.90
2019-01-03T11:43:05.332Z,8.40
2019-01-03T11:44:23.453Z,7.70
2019-01-03T11:45:46.859Z,4.90
2019-01-03T11:46:46.843Z,4.90
2019-01-03T11:48:17.835Z,3.30
2019-01-03T11:49:17.800Z,3.20
2019-01-03T11:50:17.790Z,3.10
2019-01-03T11:51:17.781Z,2.70
2019-01-03T11:52:17.810Z,3.10
2019-01-03T11:53:17.756Z,3.10
2019-01-03T11:54:17.744Z,2.60
2019-01-03T11:55:17.736Z,2.90
2019-01-03T11:56:17.723Z,3.20
2019-01-03T11:57:17.710Z,2.80
2019-01-03T11:58:37.347Z,2.90
2019-01-03T11:59:59.756Z,2.10
2019-01-03T12:00:59.728Z,2.70
2019-01-03T12:01:59.717Z,3.30
2019-01-03T12:02:59.709Z,2.70
2019-01-03T12:03:59.699Z,2.90
2019-01-03T12:04:59.687Z,3.20
2019-01-03T12:05:59.674Z,3.00
2019-01-03T12:06:59.665Z,3.70
2019-01-03T12:07:59.653Z,3.10
2019-01-03T12:08:59.646Z,3.10
2019-01-03T12:09:59.645Z,3.10
2019-01-03T12:10:59.619Z,2.70
2019-01-03T12:11:59.607Z,3.20
2019-01-03T12:12:59.597Z,3.20
2019-01-03T12:13:59.585Z,3.10
2019-01-03T12:14:59.572Z,2.90
2019-01-03T12:15:59.561Z,3.10
2019-01-03T12:16:59.552Z,2.90
2019-01-03T12:17:59.542Z,3.00
2019-01-03T12:18:59.528Z,2.80
2019-01-03T12:19:59.519Z,3.00
2019-01-03T12:20:59.511Z,2.80
2019-01-03T12:21:59.497Z,3.10
2019-01-03T12:22:59.486Z,2.80
2019-01-03T12:23:59.474Z,3.70
2019-01-03T12:24:59.463Z,3.00
2019-01-03T12:25:59.453Z,2.80
2019-01-03T12:26:59.441Z,2.90
2019-01-03T12:27:59.429Z,2.60
2019-01-03T12:28:59.418Z,2.70
2019-01-03T12:29:59.408Z,2.80
2019-01-03T12:30:59.398Z,2.80
2019-01-03T12:31:59.385Z,2.90
2019-01-03T12:32:59.374Z,3.00
2019-01-03T12:33:59.366Z,2.50
2019-01-03T12:34:59.353Z,2.60
2019-01-03T12:35:59.350Z,2.70
2019-01-03T12:36:59.329Z,2.40
2019-01-03T12:37:59.319Z,2.70
2019-01-03T12:38:59.307Z,2.40
2019-01-03T12:39:59.299Z,2.60
2019-01-03T12:40:59.284Z,2.40
2019-01-03T12:41:59.274Z,2.70
2019-01-03T12:42:59.264Z,2.50
2019-01-03T12:43:59.253Z,2.60
2019-01-03T12:44:59.244Z,2.80
2019-01-03T12:45:59.235Z,2.50
2019-01-03T12:46:59.222Z,2.90
2019-01-03T12:47:59.207Z,2.60
2019-01-03T12:48:59.204Z,2.50
2019-01-03T12:49:59.189Z,2.20
2019-01-03T12:50:59.174Z,2.60
2019-01-03T12:51:59.165Z,2.80
2019-01-03T12:52:59.152Z,2.60
2019-01-03T12:53:59.141Z,2.60
2019-01-03T12:54:59.132Z,2.60
2019-01-03T12:55:59.118Z,3.00
2019-01-03T12:56:59.108Z,2.60
2019-01-03T12:57:59.097Z,2.30
2019-01-03T12:58:59.085Z,2.80
2019-01-03T12:59:59.077Z,2.80
2019-01-03T13:00:59.063Z,2.40
2019-01-03T13:01:59.055Z,2.80
2019-01-03T13:02:59.066Z,2.70
2019-01-03T13:03:59.031Z,2.20
2019-01-03T13:04:59.024Z,2.20
2019-01-03T13:05:59.067Z,2.70
2019-01-03T13:06:59.046Z,2.40
2019-01-03T13:07:58.988Z,2.50
2019-01-03T13:08:58.974Z,2.70
2019-01-03T13:09:58.966Z,2.50
2019-01-03T13:11:05.795Z,3.00
2019-01-03T13:11:58.942Z,7.00
2019-01-03T13:12:58.935Z,6.60
2019-01-03T13:13:58.950Z,6.60
2019-01-03T13:14:58.909Z,5.40
2019-01-03T13:15:58.897Z,4.90
2019-01-03T13:16:58.889Z,3.70
2019-01-03T13:17:58.878Z,3.40
2019-01-03T13:18:58.865Z,3.60
2019-01-03T13:19:58.854Z,3.20
2019-01-03T13:20:58.842Z,3.00
2019-01-03T13:21:58.830Z,2.40
2019-01-03T13:22:58.822Z,2.50
2019-01-03T13:23:58.809Z,2.60
2019-01-03T13:24:58.801Z,2.00
2019-01-03T13:25:58.791Z,2.70
2019-01-03T13:26:58.775Z,2.30
2019-01-03T13:27:58.765Z,2.40
2019-01-03T13:28:58.751Z,2.70
2019-01-03T13:29:58.741Z,2.60
2019-01-03T13:30:58.731Z,2.80